sensor_id;sensor_type;location;lat;lon;timestamp;pressure;altitude;pressure_sealevel;temperature
70819;BMP280;58439;51.046;13.692;2023-02-04T00:01:29;100374.97;;;4.66
70819;BMP280;58439;51.046;13.692;2023-02-04T00:03:56;100365.41;;;4.39
70819;BMP280;58439;51.046;13.692;2023-02-04T00:06:23;100381.38;;;4.25
70819;BMP280;58439;51.046;13.692;2023-02-04T00:08:50;100388.22;;;4.16
70819;BMP280;58439;51.046;13.692;2023-02-04T00:11:17;100385.50;;;4.08
70819;BMP280;58439;51.046;13.692;2023-02-04T00:13:44;100401.28;;;4.05
70819;BMP280;58439;51.046;13.692;2023-02-04T00:16:11;100407.41;;;3.94
70819;BMP280;58439;51.046;13.692;2023-02-04T00:18:38;100430.41;;;3.88
70819;BMP280;58439;51.046;13.692;2023-02-04T00:21:06;100430.00;;;3.83
70819;BMP280;58439;51.046;13.692;2023-02-04T00:23:33;100422.25;;;3.83
70819;BMP280;58439;51.046;13.692;2023-02-04T00:26:00;100428.53;;;3.80
70819;BMP280;58439;51.046;13.692;2023-02-04T00:28:27;100434.63;;;3.79
70819;BMP280;58439;51.046;13.692;2023-02-04T00:30:54;100458.59;;;3.81
70819;BMP280;58439;51.046;13.692;2023-02-04T00:33:20;100468.81;;;3.73
70819;BMP280;58439;51.046;13.692;2023-02-04T00:35:48;100506.94;;;3.81
70819;BMP280;58439;51.046;13.692;2023-02-04T00:38:15;100513.88;;;3.80
70819;BMP280;58439;51.046;13.692;2023-02-04T00:40:42;100508.56;;;3.72
70819;BMP280;58439;51.046;13.692;2023-02-04T00:43:09;100520.94;;;3.78
70819;BMP280;58439;51.046;13.692;2023-02-04T00:45:37;100519.69;;;3.63
70819;BMP280;58439;51.046;13.692;2023-02-04T00:48:04;100536.09;;;3.52
70819;BMP280;58439;51.046;13.692;2023-02-04T00:50:32;100547.06;;;3.35
70819;BMP280;58439;51.046;13.692;2023-02-04T00:53:06;100555.19;;;3.30
70819;BMP280;58439;51.046;13.692;2023-02-04T00:55:33;100570.53;;;3.22
70819;BMP280;58439;51.046;13.692;2023-02-04T00:58:00;100556.22;;;3.18
70819;BMP280;58439;51.046;13.692;2023-02-04T01:00:27;100563.84;;;3.19
70819;BMP280;58439;51.046;13.692;2023-02-04T01:02:54;100572.84;;;3.25
70819;BMP280;58439;51.046;13.692;2023-02-04T01:05:21;100596.94;;;3.25
70819;BMP280;58439;51.046;13.692;2023-02-04T01:07:48;100606.47;;;3.25
70819;BMP280;58439;51.046;13.692;2023-02-04T01:10:15;100616.78;;;3.25
70819;BMP280;58439;51.046;13.692;2023-02-04T01:12:43;100621.88;;;3.36
70819;BMP280;58439;51.046;13.692;2023-02-04T01:15:10;100621.66;;;3.39
70819;BMP280;58439;51.046;13.692;2023-02-04T01:17:37;100631.31;;;3.37
70819;BMP280;58439;51.046;13.692;2023-02-04T01:20:05;100624.28;;;3.28
70819;BMP280;58439;51.046;13.692;2023-02-04T01:22:32;100631.22;;;3.27
70819;BMP280;58439;51.046;13.692;2023-02-04T01:25:00;100649.28;;;3.39
70819;BMP280;58439;51.046;13.692;2023-02-04T01:27:40;100644.81;;;3.41
70819;BMP280;58439;51.046;13.692;2023-02-04T01:30:08;100658.34;;;3.33
70819;BMP280;58439;51.046;13.692;2023-02-04T01:32:36;100669.13;;;3.38
70819;BMP280;58439;51.046;13.692;2023-02-04T01:35:06;100661.81;;;3.43
70819;BMP280;58439;51.046;13.692;2023-02-04T01:37:33;100677.03;;;3.37
70819;BMP280;58439;51.046;13.692;2023-02-04T01:40:01;100683.50;;;3.31
70819;BMP280;58439;51.046;13.692;2023-02-04T01:42:28;100692.88;;;3.32
70819;BMP280;58439;51.046;13.692;2023-02-04T01:44:55;100704.06;;;3.33
70819;BMP280;58439;51.046;13.692;2023-02-04T01:47:22;100699.13;;;3.30
70819;BMP280;58439;51.046;13.692;2023-02-04T01:49:52;100712.50;;;3.14
70819;BMP280;58439;51.046;13.692;2023-02-04T01:52:21;100727.56;;;2.97
70819;BMP280;58439;51.046;13.692;2023-02-04T01:54:50;100744.47;;;3.01
70819;BMP280;58439;51.046;13.692;2023-02-04T01:57:18;100754.09;;;2.99
70819;BMP280;58439;51.046;13.692;2023-02-04T01:59:46;100764.41;;;2.99
70819;BMP280;58439;51.046;13.692;2023-02-04T02:02:37;100771.47;;;2.97
70819;BMP280;58439;51.046;13.692;2023-02-04T02:05:08;100779.94;;;2.88
70819;BMP280;58439;51.046;13.692;2023-02-04T02:07:36;100769.28;;;2.82
70819;BMP280;58439;51.046;13.692;2023-02-04T02:10:05;100777.72;;;2.84
70819;BMP280;58439;51.046;13.692;2023-02-04T02:12:35;100776.78;;;2.85
70819;BMP280;58439;51.046;13.692;2023-02-04T02:15:03;100796.41;;;2.87
70819;BMP280;58439;51.046;13.692;2023-02-04T02:17:30;100812.13;;;2.84
70819;BMP280;58439;51.046;13.692;2023-02-04T02:19:59;100825.06;;;2.95
70819;BMP280;58439;51.046;13.692;2023-02-04T02:22:31;100835.38;;;2.95
70819;BMP280;58439;51.046;13.692;2023-02-04T02:25:06;100837.97;;;2.95
70819;BMP280;58439;51.046;13.692;2023-02-04T02:27:34;100837.59;;;3.00
70819;BMP280;58439;51.046;13.692;2023-02-04T02:30:01;100852.84;;;3.03
70819;BMP280;58439;51.046;13.692;2023-02-04T02:32:29;100858.97;;;3.02
70819;BMP280;58439;51.046;13.692;2023-02-04T02:34:56;100868.00;;;3.08
70819;BMP280;58439;51.046;13.692;2023-02-04T02:37:23;100901.59;;;3.08
70819;BMP280;58439;51.046;13.692;2023-02-04T02:39:50;100884.91;;;3.00
70819;BMP280;58439;51.046;13.692;2023-02-04T02:42:18;100892.44;;;3.04
70819;BMP280;58439;51.046;13.692;2023-02-04T02:44:47;100897.53;;;2.94
70819;BMP280;58439;51.046;13.692;2023-02-04T02:47:18;100901.03;;;2.82
70819;BMP280;58439;51.046;13.692;2023-02-04T02:49:51;100905.13;;;2.62
70819;BMP280;58439;51.046;13.692;2023-02-04T02:52:19;100907.53;;;2.52
70819;BMP280;58439;51.046;13.692;2023-02-04T02:54:49;100912.66;;;2.41
70819;BMP280;58439;51.046;13.692;2023-02-04T02:57:21;100924.97;;;2.37
70819;BMP280;58439;51.046;13.692;2023-02-04T02:59:49;100931.41;;;2.32
70819;BMP280;58439;51.046;13.692;2023-02-04T03:02:19;100938.56;;;2.28
70819;BMP280;58439;51.046;13.692;2023-02-04T03:04:55;100953.34;;;2.37
70819;BMP280;58439;51.046;13.692;2023-02-04T03:07:27;100966.59;;;2.33
70819;BMP280;58439;51.046;13.692;2023-02-04T03:09:54;100967.53;;;2.32
70819;BMP280;58439;51.046;13.692;2023-02-04T03:12:21;100970.13;;;2.32
70819;BMP280;58439;51.046;13.692;2023-02-04T03:14:48;100983.50;;;2.37
70819;BMP280;58439;51.046;13.692;2023-02-04T03:17:18;100995.00;;;2.33
70819;BMP280;58439;51.046;13.692;2023-02-04T03:19:45;100993.22;;;2.33
70819;BMP280;58439;51.046;13.692;2023-02-04T03:22:13;100988.78;;;2.35
70819;BMP280;58439;51.046;13.692;2023-02-04T03:24:40;100992.81;;;2.39
70819;BMP280;58439;51.046;13.692;2023-02-04T03:27:07;101006.88;;;2.35
70819;BMP280;58439;51.046;13.692;2023-02-04T03:29:41;101016.38;;;2.35
70819;BMP280;58439;51.046;13.692;2023-02-04T03:32:08;101018.22;;;2.33
70819;BMP280;58439;51.046;13.692;2023-02-04T03:34:36;101028.53;;;2.33
70819;BMP280;58439;51.046;13.692;2023-02-04T03:37:03;101047.97;;;2.38
70819;BMP280;58439;51.046;13.692;2023-02-04T03:39:30;101049.59;;;2.39
70819;BMP280;58439;51.046;13.692;2023-02-04T03:41:58;101056.94;;;2.45
70819;BMP280;58439;51.046;13.692;2023-02-04T03:44:25;101070.00;;;2.55
70819;BMP280;58439;51.046;13.692;2023-02-04T03:46:55;101085.00;;;2.50
70819;BMP280;58439;51.046;13.692;2023-02-04T03:49:23;101087.59;;;2.50
70819;BMP280;58439;51.046;13.692;2023-02-04T03:51:50;101105.78;;;2.36
70819;BMP280;58439;51.046;13.692;2023-02-04T03:54:17;101119.97;;;2.30
70819;BMP280;58439;51.046;13.692;2023-02-04T03:56:44;101125.75;;;2.21
70819;BMP280;58439;51.046;13.692;2023-02-04T03:59:11;101137.94;;;2.19
70819;BMP280;58439;51.046;13.692;2023-02-04T04:01:38;101153.63;;;2.16
70819;BMP280;58439;51.046;13.692;2023-02-04T04:04:05;101169.53;;;2.10
70819;BMP280;58439;51.046;13.692;2023-02-04T04:06:32;101170.38;;;2.10
70819;BMP280;58439;51.046;13.692;2023-02-04T04:08:59;101181.81;;;2.06
70819;BMP280;58439;51.046;13.692;2023-02-04T04:11:27;101200.16;;;1.89
70819;BMP280;58439;51.046;13.692;2023-02-04T04:13:54;101202.75;;;1.76
70819;BMP280;58439;51.046;13.692;2023-02-04T04:16:22;101203.25;;;1.68
70819;BMP280;58439;51.046;13.692;2023-02-04T04:18:49;101220.91;;;1.74
70819;BMP280;58439;51.046;13.692;2023-02-04T04:21:16;101223.72;;;1.84
70819;BMP280;58439;51.046;13.692;2023-02-04T04:23:44;101226.47;;;1.94
70819;BMP280;58439;51.046;13.692;2023-02-04T04:26:11;101230.72;;;1.95
70819;BMP280;58439;51.046;13.692;2023-02-04T04:28:38;101247.97;;;1.94
70819;BMP280;58439;51.046;13.692;2023-02-04T04:31:08;101245.38;;;1.94
70819;BMP280;58439;51.046;13.692;2023-02-04T04:33:35;101244.03;;;2.02
70819;BMP280;58439;51.046;13.692;2023-02-04T04:36:03;101250.31;;;1.97
70819;BMP280;58439;51.046;13.692;2023-02-04T04:38:30;101251.66;;;1.90
70819;BMP280;58439;51.046;13.692;2023-02-04T04:41:01;101267.16;;;1.90
70819;BMP280;58439;51.046;13.692;2023-02-04T04:43:28;101271.69;;;1.99
70819;BMP280;58439;51.046;13.692;2023-02-04T04:45:55;101268.38;;;1.97
70819;BMP280;58439;51.046;13.692;2023-02-04T04:48:22;101279.63;;;1.96
70819;BMP280;58439;51.046;13.692;2023-02-04T04:50:59;101286.56;;;1.96
70819;BMP280;58439;51.046;13.692;2023-02-04T04:53:27;101295.84;;;1.98
70819;BMP280;58439;51.046;13.692;2023-02-04T04:55:57;101297.31;;;2.03
70819;BMP280;58439;51.046;13.692;2023-02-04T04:58:27;101320.31;;;2.06
70819;BMP280;58439;51.046;13.692;2023-02-04T05:00:54;101327.84;;;2.09
70819;BMP280;58439;51.046;13.692;2023-02-04T05:03:21;101330.22;;;1.99
70819;BMP280;58439;51.046;13.692;2023-02-04T05:05:49;101335.69;;;1.94
70819;BMP280;58439;51.046;13.692;2023-02-04T05:08:16;101336.88;;;1.89
70819;BMP280;58439;51.046;13.692;2023-02-04T05:10:45;101344.25;;;1.95
70819;BMP280;58439;51.046;13.692;2023-02-04T05:13:13;101354.91;;;2.03
70819;BMP280;58439;51.046;13.692;2023-02-04T05:15:40;101349.09;;;1.99
70819;BMP280;58439;51.046;13.692;2023-02-04T05:18:08;101349.94;;;2.00
70819;BMP280;58439;51.046;13.692;2023-02-04T05:20:37;101350.88;;;1.99
70819;BMP280;58439;51.046;13.692;2023-02-04T05:23:05;101350.53;;;1.91
70819;BMP280;58439;51.046;13.692;2023-02-04T05:25:32;101347.84;;;1.92
70819;BMP280;58439;51.046;13.692;2023-02-04T05:28:01;101363.94;;;1.83
70819;BMP280;58439;51.046;13.692;2023-02-04T05:30:28;101365.25;;;1.76
70819;BMP280;58439;51.046;13.692;2023-02-04T05:32:58;101375.72;;;1.73
70819;BMP280;58439;51.046;13.692;2023-02-04T05:35:26;101395.56;;;1.58
70819;BMP280;58439;51.046;13.692;2023-02-04T05:37:53;101392.84;;;1.47
70819;BMP280;58439;51.046;13.692;2023-02-04T05:40:20;101397.06;;;1.48
70819;BMP280;58439;51.046;13.692;2023-02-04T05:42:47;101409.41;;;1.43
70819;BMP280;58439;51.046;13.692;2023-02-04T05:45:15;101411.00;;;1.31
70819;BMP280;58439;51.046;13.692;2023-02-04T05:47:44;101417.69;;;1.34
70819;BMP280;58439;51.046;13.692;2023-02-04T05:50:11;101420.38;;;1.32
70819;BMP280;58439;51.046;13.692;2023-02-04T05:52:38;101429.75;;;1.33
70819;BMP280;58439;51.046;13.692;2023-02-04T05:55:08;101432.97;;;1.37
70819;BMP280;58439;51.046;13.692;2023-02-04T05:57:36;101439.34;;;1.31
70819;BMP280;58439;51.046;13.692;2023-02-04T06:00:04;101441.56;;;1.23
70819;BMP280;58439;51.046;13.692;2023-02-04T06:02:39;101452.69;;;1.23
70819;BMP280;58439;51.046;13.692;2023-02-04T06:05:07;101463.34;;;1.17
70819;BMP280;58439;51.046;13.692;2023-02-04T06:07:34;101464.38;;;1.15
70819;BMP280;58439;51.046;13.692;2023-02-04T06:10:01;101460.50;;;1.08
70819;BMP280;58439;51.046;13.692;2023-02-04T06:12:28;101465.81;;;1.05
70819;BMP280;58439;51.046;13.692;2023-02-04T06:14:55;101477.31;;;0.99
70819;BMP280;58439;51.046;13.692;2023-02-04T06:17:22;101486.09;;;0.95
70819;BMP280;58439;51.046;13.692;2023-02-04T06:19:49;101491.53;;;0.90
70819;BMP280;58439;51.046;13.692;2023-02-04T06:22:17;101502.31;;;0.97
70819;BMP280;58439;51.046;13.692;2023-02-04T06:24:44;101513.53;;;0.96
70819;BMP280;58439;51.046;13.692;2023-02-04T06:27:13;101513.63;;;0.94
70819;BMP280;58439;51.046;13.692;2023-02-04T06:29:40;101522.78;;;0.84
70819;BMP280;58439;51.046;13.692;2023-02-04T06:32:07;101529.47;;;0.72
70819;BMP280;58439;51.046;13.692;2023-02-04T06:34:34;101529.22;;;0.61
70819;BMP280;58439;51.046;13.692;2023-02-04T06:37:01;101538.94;;;0.56
70819;BMP280;58439;51.046;13.692;2023-02-04T06:39:29;101547.25;;;0.61
70819;BMP280;58439;51.046;13.692;2023-02-04T06:41:59;101552.28;;;0.63
70819;BMP280;58439;51.046;13.692;2023-02-04T06:44:26;101557.13;;;0.53
70819;BMP280;58439;51.046;13.692;2023-02-04T06:46:55;101566.19;;;0.44
70819;BMP280;58439;51.046;13.692;2023-02-04T06:49:25;101568.09;;;0.41
70819;BMP280;58439;51.046;13.692;2023-02-04T06:51:53;101571.75;;;0.37
70819;BMP280;58439;51.046;13.692;2023-02-04T06:54:21;101577.88;;;0.34
70819;BMP280;58439;51.046;13.692;2023-02-04T06:56:48;101577.97;;;0.33
70819;BMP280;58439;51.046;13.692;2023-02-04T06:59:15;101597.31;;;0.24
70819;BMP280;58439;51.046;13.692;2023-02-04T07:01:42;101592.19;;;0.24
70819;BMP280;58439;51.046;13.692;2023-02-04T07:04:09;101602.63;;;0.21
70819;BMP280;58439;51.046;13.692;2023-02-04T07:06:38;101606.28;;;0.17
70819;BMP280;58439;51.046;13.692;2023-02-04T07:09:05;101616.41;;;0.20
70819;BMP280;58439;51.046;13.692;2023-02-04T07:11:32;101622.28;;;0.22
70819;BMP280;58439;51.046;13.692;2023-02-04T07:14:01;101623.22;;;0.21
70819;BMP280;58439;51.046;13.692;2023-02-04T07:16:29;101621.75;;;0.15
70819;BMP280;58439;51.046;13.692;2023-02-04T07:19:06;101621.56;;;0.20
70819;BMP280;58439;51.046;13.692;2023-02-04T07:22:04;101624.03;;;0.21
70819;BMP280;58439;51.046;13.692;2023-02-04T07:24:31;101623.13;;;0.22
70819;BMP280;58439;51.046;13.692;2023-02-04T07:26:58;101630.78;;;0.24
70819;BMP280;58439;51.046;13.692;2023-02-04T07:29:28;101625.38;;;0.29
70819;BMP280;58439;51.046;13.692;2023-02-04T07:31:55;101628.63;;;0.32
70819;BMP280;58439;51.046;13.692;2023-02-04T07:34:23;101632.19;;;0.30
70819;BMP280;58439;51.046;13.692;2023-02-04T07:36:50;101629.34;;;0.34
70819;BMP280;58439;51.046;13.692;2023-02-04T07:39:17;101631.75;;;0.37
70819;BMP280;58439;51.046;13.692;2023-02-04T07:44:30;101643.97;;;0.49
70819;BMP280;58439;51.046;13.692;2023-02-04T07:46:57;101662.41;;;0.58
70819;BMP280;58439;51.046;13.692;2023-02-04T07:49:25;101658.53;;;0.66
70819;BMP280;58439;51.046;13.692;2023-02-04T07:51:55;101664.84;;;0.77
70819;BMP280;58439;51.046;13.692;2023-02-04T07:54:28;101666.34;;;0.81
70819;BMP280;58439;51.046;13.692;2023-02-04T07:56:55;101666.00;;;0.87
70819;BMP280;58439;51.046;13.692;2023-02-04T07:59:22;101682.13;;;1.06
70819;BMP280;58439;51.046;13.692;2023-02-04T08:01:55;101682.38;;;1.17
70819;BMP280;58439;51.046;13.692;2023-02-04T08:04:25;101685.28;;;1.27
70819;BMP280;58439;51.046;13.692;2023-02-04T08:06:52;101705.72;;;1.30
70819;BMP280;58439;51.046;13.692;2023-02-04T08:09:19;101696.81;;;1.36
70819;BMP280;58439;51.046;13.692;2023-02-04T08:11:47;101702.88;;;1.35
70819;BMP280;58439;51.046;13.692;2023-02-04T08:14:14;101709.06;;;1.32
70819;BMP280;58439;51.046;13.692;2023-02-04T08:16:43;101710.16;;;1.28
70819;BMP280;58439;51.046;13.692;2023-02-04T08:19:10;101710.47;;;1.22
70819;BMP280;58439;51.046;13.692;2023-02-04T08:21:37;101711.91;;;1.28
70819;BMP280;58439;51.046;13.692;2023-02-04T08:24:04;101717.72;;;1.31
70819;BMP280;58439;51.046;13.692;2023-02-04T08:26:35;101721.50;;;1.40
70819;BMP280;58439;51.046;13.692;2023-02-04T08:29:03;101731.47;;;1.46
70819;BMP280;58439;51.046;13.692;2023-02-04T08:31:30;101731.78;;;1.56
70819;BMP280;58439;51.046;13.692;2023-02-04T08:33:57;101741.94;;;1.59
70819;BMP280;58439;51.046;13.692;2023-02-04T08:36:24;101744.72;;;1.70
70819;BMP280;58439;51.046;13.692;2023-02-04T08:38:51;101751.88;;;1.81
70819;BMP280;58439;51.046;13.692;2023-02-04T08:41:20;101750.78;;;1.85
70819;BMP280;58439;51.046;13.692;2023-02-04T08:43:47;101760.81;;;1.89
70819;BMP280;58439;51.046;13.692;2023-02-04T08:46:17;101765.84;;;2.07
70819;BMP280;58439;51.046;13.692;2023-02-04T08:48:44;101770.38;;;2.17
70819;BMP280;58439;51.046;13.692;2023-02-04T08:51:11;101775.38;;;2.35
70819;BMP280;58439;51.046;13.692;2023-02-04T08:53:38;101779.84;;;2.47
70819;BMP280;58439;51.046;13.692;2023-02-04T08:56:06;101777.72;;;2.54
70819;BMP280;58439;51.046;13.692;2023-02-04T08:58:35;101783.34;;;2.60
70819;BMP280;58439;51.046;13.692;2023-02-04T09:01:02;101794.66;;;2.72
70819;BMP280;58439;51.046;13.692;2023-02-04T09:03:29;101788.59;;;2.87
70819;BMP280;58439;51.046;13.692;2023-02-04T09:05:56;101794.50;;;2.89
70819;BMP280;58439;51.046;13.692;2023-02-04T09:08:23;101801.16;;;2.93
70819;BMP280;58439;51.046;13.692;2023-02-04T09:10:52;101800.56;;;3.03
70819;BMP280;58439;51.046;13.692;2023-02-04T09:13:19;101806.44;;;3.05
70819;BMP280;58439;51.046;13.692;2023-02-04T09:15:46;101806.44;;;3.05
70819;BMP280;58439;51.046;13.692;2023-02-04T09:18:14;101802.22;;;3.18
70819;BMP280;58439;51.046;13.692;2023-02-04T09:20:43;101810.41;;;3.24
70819;BMP280;58439;51.046;13.692;2023-02-04T09:23:11;101821.94;;;3.33
70819;BMP280;58439;51.046;13.692;2023-02-04T09:25:38;101815.25;;;3.43
70819;BMP280;58439;51.046;13.692;2023-02-04T09:28:06;101817.66;;;3.46
70819;BMP280;58439;51.046;13.692;2023-02-04T09:30:36;101819.88;;;3.38
70819;BMP280;58439;51.046;13.692;2023-02-04T09:33:15;101824.31;;;3.36
70819;BMP280;58439;51.046;13.692;2023-02-04T09:35:45;101834.66;;;3.36
70819;BMP280;58439;51.046;13.692;2023-02-04T09:38:12;101834.28;;;3.42
70819;BMP280;58439;51.046;13.692;2023-02-04T09:40:42;101838.75;;;3.53
70819;BMP280;58439;51.046;13.692;2023-02-04T09:43:21;101842.06;;;3.69
70819;BMP280;58439;51.046;13.692;2023-02-04T09:45:52;101856.47;;;3.86
70819;BMP280;58439;51.046;13.692;2023-02-04T09:48:21;101852.56;;;3.93
70819;BMP280;58439;51.046;13.692;2023-02-04T09:50:50;101857.94;;;3.90
70819;BMP280;58439;51.046;13.692;2023-02-04T09:53:20;101859.00;;;4.00
70819;BMP280;58439;51.046;13.692;2023-02-04T09:55:57;101852.09;;;4.14
70819;BMP280;58439;51.046;13.692;2023-02-04T09:58:33;101865.38;;;4.35
70819;BMP280;58439;51.046;13.692;2023-02-04T10:01:19;101875.53;;;4.50
70819;BMP280;58439;51.046;13.692;2023-02-04T10:03:48;101870.25;;;4.39
70819;BMP280;58439;51.046;13.692;2023-02-04T10:06:20;101869.41;;;4.26
70819;BMP280;58439;51.046;13.692;2023-02-04T10:08:50;101872.31;;;4.34
70819;BMP280;58439;51.046;13.692;2023-02-04T10:11:20;101872.03;;;4.51
70819;BMP280;58439;51.046;13.692;2023-02-04T10:13:52;101875.00;;;4.71
70819;BMP280;58439;51.046;13.692;2023-02-04T10:16:24;101878.00;;;4.77
70819;BMP280;58439;51.046;13.692;2023-02-04T10:19:04;101876.88;;;4.69
70819;BMP280;58439;51.046;13.692;2023-02-04T10:21:34;101884.16;;;4.64
70819;BMP280;58439;51.046;13.692;2023-02-04T10:24:14;101887.66;;;4.88
70819;BMP280;58439;51.046;13.692;2023-02-04T10:26:42;101885.34;;;5.09
70819;BMP280;58439;51.046;13.692;2023-02-04T10:29:18;101884.09;;;5.02
70819;BMP280;58439;51.046;13.692;2023-02-04T10:31:48;101888.19;;;4.93
70819;BMP280;58439;51.046;13.692;2023-02-04T10:34:37;101886.38;;;5.67
70819;BMP280;58439;51.046;13.692;2023-02-04T10:37:18;101891.72;;;6.12
70819;BMP280;58439;51.046;13.692;2023-02-04T10:39:46;101889.56;;;6.52
70819;BMP280;58439;51.046;13.692;2023-02-04T10:42:25;101885.53;;;6.37
70819;BMP280;58439;51.046;13.692;2023-02-04T10:44:55;101887.59;;;6.09
70819;BMP280;58439;51.046;13.692;2023-02-04T10:47:25;101881.94;;;5.80
70819;BMP280;58439;51.046;13.692;2023-02-04T10:50:18;101891.28;;;5.35
70819;BMP280;58439;51.046;13.692;2023-02-04T10:53:02;101889.28;;;5.02
70819;BMP280;58439;51.046;13.692;2023-02-04T10:56:21;101890.22;;;5.01
70819;BMP280;58439;51.046;13.692;2023-02-04T10:59:20;101887.44;;;5.04
70819;BMP280;58439;51.046;13.692;2023-02-04T11:01:48;101893.72;;;5.25
70819;BMP280;58439;51.046;13.692;2023-02-04T11:04:15;101894.53;;;5.50
70819;BMP280;58439;51.046;13.692;2023-02-04T11:06:42;101893.44;;;5.41
70819;BMP280;58439;51.046;13.692;2023-02-04T11:09:13;101892.50;;;6.25
70819;BMP280;58439;51.046;13.692;2023-02-04T11:11:45;101892.06;;;6.54
70819;BMP280;58439;51.046;13.692;2023-02-04T11:14:29;101889.94;;;5.66
70819;BMP280;58439;51.046;13.692;2023-02-04T11:16:56;101899.22;;;6.28
70819;BMP280;58439;51.046;13.692;2023-02-04T11:19:36;101902.06;;;9.31
70819;BMP280;58439;51.046;13.692;2023-02-04T11:22:20;101900.66;;;9.18
70819;BMP280;58439;51.046;13.692;2023-02-04T11:24:48;101908.63;;;7.73
70819;BMP280;58439;51.046;13.692;2023-02-04T11:27:21;101904.06;;;9.96
70819;BMP280;58439;51.046;13.692;2023-02-04T11:29:49;101915.19;;;10.99
70819;BMP280;58439;51.046;13.692;2023-02-04T11:32:36;101909.59;;;9.34
70819;BMP280;58439;51.046;13.692;2023-02-04T11:37:41;101909.63;;;10.20
70819;BMP280;58439;51.046;13.692;2023-02-04T11:40:22;101913.88;;;12.85
70819;BMP280;58439;51.046;13.692;2023-02-04T11:42:58;101916.50;;;12.85
70819;BMP280;58439;51.046;13.692;2023-02-04T11:45:29;101915.03;;;10.18
70819;BMP280;58439;51.046;13.692;2023-02-04T11:48:10;101922.13;;;7.99
70819;BMP280;58439;51.046;13.692;2023-02-04T11:50:58;101908.72;;;6.62
70819;BMP280;58439;51.046;13.692;2023-02-04T11:53:35;101915.75;;;5.92
70819;BMP280;58439;51.046;13.692;2023-02-04T11:56:13;101923.22;;;8.17
70819;BMP280;58439;51.046;13.692;2023-02-04T12:00:37;101917.16;;;10.70
70819;BMP280;58439;51.046;13.692;2023-02-04T12:11:33;101932.53;;;8.41
70819;BMP280;58439;51.046;13.692;2023-02-04T12:14:07;101928.81;;;6.83
70819;BMP280;58439;51.046;13.692;2023-02-04T12:16:48;101937.84;;;9.00
70819;BMP280;58439;51.046;13.692;2023-02-04T12:19:37;101940.41;;;12.32
70819;BMP280;58439;51.046;13.692;2023-02-04T12:22:09;101937.31;;;11.05
70819;BMP280;58439;51.046;13.692;2023-02-04T12:24:36;101939.66;;;9.00
70819;BMP280;58439;51.046;13.692;2023-02-04T12:27:03;101951.97;;;7.74
70819;BMP280;58439;51.046;13.692;2023-02-04T12:29:30;101946.31;;;7.03
70819;BMP280;58439;51.046;13.692;2023-02-04T12:32:00;101941.50;;;6.99
70819;BMP280;58439;51.046;13.692;2023-02-04T12:34:27;101944.66;;;7.02
70819;BMP280;58439;51.046;13.692;2023-02-04T12:36:54;101948.41;;;8.89
70819;BMP280;58439;51.046;13.692;2023-02-04T12:39:21;101949.13;;;7.98
70819;BMP280;58439;51.046;13.692;2023-02-04T12:41:48;101946.53;;;7.00
70819;BMP280;58439;51.046;13.692;2023-02-04T12:44:15;101949.56;;;6.38
70819;BMP280;58439;51.046;13.692;2023-02-04T12:46:43;101942.00;;;7.79
70819;BMP280;58439;51.046;13.692;2023-02-04T12:49:11;101930.81;;;7.24
70819;BMP280;58439;51.046;13.692;2023-02-04T12:52:04;101930.63;;;6.13
70819;BMP280;58439;51.046;13.692;2023-02-04T12:54:35;101940.47;;;7.44
70819;BMP280;58439;51.046;13.692;2023-02-04T12:57:02;101945.19;;;10.50
70819;BMP280;58439;51.046;13.692;2023-02-04T12:59:29;101935.53;;;12.37
70819;BMP280;58439;51.046;13.692;2023-02-04T13:01:57;101943.00;;;13.49
70819;BMP280;58439;51.046;13.692;2023-02-04T13:04:24;101952.72;;;14.12
70819;BMP280;58439;51.046;13.692;2023-02-04T13:06:51;101949.69;;;14.39
70819;BMP280;58439;51.046;13.692;2023-02-04T13:09:21;101956.97;;;14.91
70819;BMP280;58439;51.046;13.692;2023-02-04T13:11:48;101959.28;;;14.24
70819;BMP280;58439;51.046;13.692;2023-02-04T13:14:17;101952.63;;;12.91
70819;BMP280;58439;51.046;13.692;2023-02-04T13:16:44;101958.28;;;12.62
70819;BMP280;58439;51.046;13.692;2023-02-04T13:19:14;101951.44;;;10.77
70819;BMP280;58439;51.046;13.692;2023-02-04T13:21:41;101956.09;;;9.31
70819;BMP280;58439;51.046;13.692;2023-02-04T13:24:08;101950.09;;;10.63
70819;BMP280;58439;51.046;13.692;2023-02-04T13:26:35;101946.41;;;10.83
70819;BMP280;58439;51.046;13.692;2023-02-04T13:29:02;101948.97;;;9.43
70819;BMP280;58439;51.046;13.692;2023-02-04T13:31:31;101956.03;;;9.21
70819;BMP280;58439;51.046;13.692;2023-02-04T13:33:59;101959.22;;;9.15
70819;BMP280;58439;51.046;13.692;2023-02-04T13:36:28;101972.22;;;8.96
70819;BMP280;58439;51.046;13.692;2023-02-04T13:38:56;101958.13;;;11.07
70819;BMP280;58439;51.046;13.692;2023-02-04T13:41:28;101970.34;;;11.87
70819;BMP280;58439;51.046;13.692;2023-02-04T13:43:59;101965.06;;;12.73
70819;BMP280;58439;51.046;13.692;2023-02-04T13:46:26;101966.31;;;13.36
70819;BMP280;58439;51.046;13.692;2023-02-04T13:48:53;101966.66;;;13.65
70819;BMP280;58439;51.046;13.692;2023-02-04T13:51:20;101976.06;;;14.23
70819;BMP280;58439;51.046;13.692;2023-02-04T13:53:47;101973.44;;;14.15
70819;BMP280;58439;51.046;13.692;2023-02-04T13:56:27;101980.78;;;14.36
70819;BMP280;58439;51.046;13.692;2023-02-04T13:58:54;101977.56;;;14.57
70819;BMP280;58439;51.046;13.692;2023-02-04T14:01:21;101976.06;;;14.23
70819;BMP280;58439;51.046;13.692;2023-02-04T14:03:54;101972.13;;;14.27
70819;BMP280;58439;51.046;13.692;2023-02-04T14:06:21;101973.16;;;14.02
70819;BMP280;58439;51.046;13.692;2023-02-04T14:08:49;101970.97;;;14.22
70819;BMP280;58439;51.046;13.692;2023-02-04T14:11:16;101975.22;;;14.23
70819;BMP280;58439;51.046;13.692;2023-02-04T14:13:46;101967.41;;;14.76
70819;BMP280;58439;51.046;13.692;2023-02-04T14:16:13;101968.78;;;14.95
70819;BMP280;58439;51.046;13.692;2023-02-04T14:18:40;101969.41;;;14.97
70819;BMP280;58439;51.046;13.692;2023-02-04T14:21:07;101977.75;;;14.86
70819;BMP280;58439;51.046;13.692;2023-02-04T14:23:34;101979.66;;;14.69